Jena Marie C. — WDD4969 — position and weather

sailwx.info

Track history (hours):
 
Tides and Currents Weather Stations Pressure Air Temp Water Temp Dewpoint Dewpoint Depression Visibility Wind Speed Wind Dir Waves Ship Positions

Jena Marie C.

Owner: Scott C. Marine Towing, LLC, Marrero, LA. More information available from US FCC via Universal Licensing System and Coast Guard Vessel Documentation Center.

Last reported at 2014-Oct-11 22:32 UTC. Time now 2014-Oct-20 08:15 UTC.
Position N 29°58' W 090°17'.
Warning: this ship's position is 8 days out of date.

Length 19 m; draft 2.5 m.

Type: Towing. MMSI: 367151880.

Date/timePositionNaut miles runAvg speedWind from/ knotsBaromVisibWave heightAir tempDewpointWater temp
2014-Oct-11 22:32N 29°58' W 090°17'4 0.2
2014-Oct-11 06:33N 29°56' W 090°20'5 5.2
2014-Oct-11 05:33N 29°60' W 090°25'0 0.2
2014-Oct-11 04:32N 29°60' W 090°25'0 0.0
2014-Oct-11 03:32N 29°60' W 090°25'0 0.0
2014-Oct-11 02:33N 29°60' W 090°25'0 0.0
2014-Oct-10 22:22N 29°60' W 090°25'  
2014-Oct-06 06:22N 29°36' W 090°22'21 1.1
2014-Oct-05 10:29N 29°57' W 090°19'6 6.2
2014-Oct-05 09:33N 29°59' W 090°24'6 6.2
2014-Oct-05 08:33N 30°03' W 090°30'6 5.8
2014-Oct-05 07:33N 30°02' W 090°37'5 4.5
2014-Oct-05 06:33N 30°03' W 090°32'5 5.1
2014-Oct-05 05:33N 29°60' W 090°27'6 5.7
2014-Oct-05 04:33N 29°56' W 090°22'  
2014-Oct-02 12:33N 29°59' W 090°24'0 0.0
2014-Oct-02 11:33N 29°59' W 090°24'0 0.0
2014-Oct-02 10:33N 29°59' W 090°24'0 0.0
2014-Oct-02 09:33N 29°59' W 090°24'0 0.0
2014-Oct-02 08:33N 29°59' W 090°24'0 0.0
2014-Oct-02 07:33N 29°59' W 090°24'0 0.0
2014-Oct-02 06:33N 29°59' W 090°24'0 0.0
2014-Oct-02 05:33N 29°59' W 090°24'0 0.0
2014-Oct-02 04:33N 29°59' W 090°24'0 0.0
2014-Oct-02 03:33N 29°59' W 090°24'0 0.0
2014-Oct-02 02:33N 29°59' W 090°24'0 0.0
2014-Oct-02 01:33N 29°59' W 090°24'0 0.1
2014-Oct-02 00:33N 29°59' W 090°24'2 1.6
2014-Oct-01 23:33N 29°60' W 090°26'  
Track history (hours):
 
Tides and Currents Weather Stations Pressure Air Temp Water Temp Dewpoint Dewpoint Depression Visibility Wind Speed Wind Dir Waves Ship Positions

Jena Marie C.

Owner: Scott C. Marine Towing, LLC, Marrero, LA. More information available from US FCC via Universal Licensing System and Coast Guard Vessel Documentation Center.

Last reported at 2014-Oct-11 22:32 UTC. Time now 2014-Oct-20 08:15 UTC.
Position N 29°58' W 090°17'.
Warning: this ship's position is 8 days out of date.

Length 19 m; draft 2.5 m.

Type: Towing. MMSI: 367151880.

Date/timePositionNaut miles runAvg speedWind from/ knotsBaromVisibWave heightAir tempDewpointWater temp
2014-Oct-11 22:32N 29°58' W 090°17'4 0.2
2014-Oct-11 06:33N 29°56' W 090°20'5 5.2
2014-Oct-11 05:33N 29°60' W 090°25'0 0.2
2014-Oct-11 04:32N 29°60' W 090°25'0 0.0
2014-Oct-11 03:32N 29°60' W 090°25'0 0.0
2014-Oct-11 02:33N 29°60' W 090°25'0 0.0
2014-Oct-10 22:22N 29°60' W 090°25'  
2014-Oct-06 06:22N 29°36' W 090°22'21 1.1
2014-Oct-05 10:29N 29°57' W 090°19'6 6.2
2014-Oct-05 09:33N 29°59' W 090°24'6 6.2
2014-Oct-05 08:33N 30°03' W 090°30'6 5.8
2014-Oct-05 07:33N 30°02' W 090°37'5 4.5
2014-Oct-05 06:33N 30°03' W 090°32'5 5.1
2014-Oct-05 05:33N 29°60' W 090°27'6 5.7
2014-Oct-05 04:33N 29°56' W 090°22'  
2014-Oct-02 12:33N 29°59' W 090°24'0 0.0
2014-Oct-02 11:33N 29°59' W 090°24'0 0.0
2014-Oct-02 10:33N 29°59' W 090°24'0 0.0
2014-Oct-02 09:33N 29°59' W 090°24'0 0.0
2014-Oct-02 08:33N 29°59' W 090°24'0 0.0
2014-Oct-02 07:33N 29°59' W 090°24'0 0.0
2014-Oct-02 06:33N 29°59' W 090°24'0 0.0
2014-Oct-02 05:33N 29°59' W 090°24'0 0.0
2014-Oct-02 04:33N 29°59' W 090°24'0 0.0
2014-Oct-02 03:33N 29°59' W 090°24'0 0.0
2014-Oct-02 02:33N 29°59' W 090°24'0 0.0
2014-Oct-02 01:33N 29°59' W 090°24'0 0.1
2014-Oct-02 00:33N 29°59' W 090°24'2 1.6
2014-Oct-01 23:33N 29°60' W 090°26'  

Dump ship's entire track history